sensor_id;sensor_type;location;lat;lon;timestamp;P1;durP1;ratioP1;P2;durP2;ratioP2
47219;SDS011;32961;51.936;4.788;2024-01-30T00:02:25;18.35;;;11.25;;
47219;SDS011;32961;51.936;4.788;2024-01-30T00:04:53;15.80;;;10.50;;
47219;SDS011;32961;51.936;4.788;2024-01-30T00:07:21;17.27;;;10.73;;
47219;SDS011;32961;51.936;4.788;2024-01-30T00:09:49;16.38;;;10.65;;
47219;SDS011;32961;51.936;4.788;2024-01-30T00:12:21;16.27;;;10.77;;
47219;SDS011;32961;51.936;4.788;2024-01-30T00:14:48;17.50;;;10.57;;
47219;SDS011;32961;51.936;4.788;2024-01-30T00:17:20;21.63;;;10.70;;
47219;SDS011;32961;51.936;4.788;2024-01-30T00:19:48;16.38;;;10.18;;
47219;SDS011;32961;51.936;4.788;2024-01-30T00:22:17;17.33;;;10.77;;
47219;SDS011;32961;51.936;4.788;2024-01-30T00:24:45;19.70;;;10.45;;
47219;SDS011;32961;51.936;4.788;2024-01-30T00:27:13;15.20;;;10.02;;
47219;SDS011;32961;51.936;4.788;2024-01-30T00:29:42;16.77;;;10.10;;
47219;SDS011;32961;51.936;4.788;2024-01-30T00:32:10;14.70;;;10.43;;
47219;SDS011;32961;51.936;4.788;2024-01-30T00:34:38;14.80;;;9.73;;
47219;SDS011;32961;51.936;4.788;2024-01-30T00:37:06;15.25;;;10.35;;
47219;SDS011;32961;51.936;4.788;2024-01-30T00:39:34;21.05;;;10.98;;
47219;SDS011;32961;51.936;4.788;2024-01-30T00:42:02;21.77;;;10.23;;
47219;SDS011;32961;51.936;4.788;2024-01-30T00:44:30;20.67;;;10.27;;
47219;SDS011;32961;51.936;4.788;2024-01-30T00:47:00;20.10;;;10.52;;
47219;SDS011;32961;51.936;4.788;2024-01-30T00:49:28;13.52;;;9.95;;
47219;SDS011;32961;51.936;4.788;2024-01-30T00:51:56;21.55;;;10.50;;
47219;SDS011;32961;51.936;4.788;2024-01-30T00:54:24;15.73;;;9.98;;
47219;SDS011;32961;51.936;4.788;2024-01-30T00:56:52;15.75;;;9.82;;
47219;SDS011;32961;51.936;4.788;2024-01-30T00:59:20;15.27;;;8.88;;
47219;SDS011;32961;51.936;4.788;2024-01-30T01:01:47;12.25;;;9.05;;
47219;SDS011;32961;51.936;4.788;2024-01-30T01:04:17;13.45;;;8.98;;
47219;SDS011;32961;51.936;4.788;2024-01-30T01:06:47;15.18;;;8.60;;
47219;SDS011;32961;51.936;4.788;2024-01-30T01:09:15;17.17;;;10.30;;
47219;SDS011;32961;51.936;4.788;2024-01-30T01:11:42;15.20;;;8.95;;
47219;SDS011;32961;51.936;4.788;2024-01-30T01:14:10;14.52;;;9.13;;
47219;SDS011;32961;51.936;4.788;2024-01-30T01:16:38;14.95;;;9.23;;
47219;SDS011;32961;51.936;4.788;2024-01-30T01:19:06;18.02;;;9.07;;
47219;SDS011;32961;51.936;4.788;2024-01-30T01:21:35;14.30;;;9.25;;
47219;SDS011;32961;51.936;4.788;2024-01-30T01:24:04;14.50;;;8.98;;
47219;SDS011;32961;51.936;4.788;2024-01-30T01:26:32;33.67;;;18.63;;
47219;SDS011;32961;51.936;4.788;2024-01-30T01:29:00;25.85;;;14.35;;
47219;SDS011;32961;51.936;4.788;2024-01-30T01:31:28;20.23;;;10.40;;
47219;SDS011;32961;51.936;4.788;2024-01-30T01:33:56;15.77;;;9.57;;
47219;SDS011;32961;51.936;4.788;2024-01-30T01:36:24;13.57;;;8.65;;
47219;SDS011;32961;51.936;4.788;2024-01-30T01:38:53;16.55;;;9.13;;
47219;SDS011;32961;51.936;4.788;2024-01-30T01:41:21;15.23;;;8.48;;
47219;SDS011;32961;51.936;4.788;2024-01-30T01:43:49;16.95;;;9.45;;
47219;SDS011;32961;51.936;4.788;2024-01-30T01:46:17;14.73;;;9.13;;
47219;SDS011;32961;51.936;4.788;2024-01-30T01:48:45;16.40;;;8.77;;
47219;SDS011;32961;51.936;4.788;2024-01-30T01:51:13;15.60;;;9.73;;
47219;SDS011;32961;51.936;4.788;2024-01-30T01:53:43;14.98;;;9.10;;
47219;SDS011;32961;51.936;4.788;2024-01-30T01:56:12;14.13;;;9.40;;
47219;SDS011;32961;51.936;4.788;2024-01-30T01:58:44;12.73;;;8.30;;
47219;SDS011;32961;51.936;4.788;2024-01-30T02:01:13;18.02;;;10.10;;
47219;SDS011;32961;51.936;4.788;2024-01-30T02:03:43;15.32;;;9.48;;
47219;SDS011;32961;51.936;4.788;2024-01-30T02:06:11;16.95;;;9.75;;
47219;SDS011;32961;51.936;4.788;2024-01-30T02:08:40;18.20;;;9.02;;
47219;SDS011;32961;51.936;4.788;2024-01-30T02:11:08;18.13;;;10.10;;
47219;SDS011;32961;51.936;4.788;2024-01-30T02:13:37;17.77;;;9.52;;
47219;SDS011;32961;51.936;4.788;2024-01-30T02:16:05;15.77;;;9.27;;
47219;SDS011;32961;51.936;4.788;2024-01-30T02:18:33;13.40;;;8.20;;
47219;SDS011;32961;51.936;4.788;2024-01-30T02:21:04;15.23;;;9.02;;
47219;SDS011;32961;51.936;4.788;2024-01-30T02:23:33;17.05;;;8.95;;
47219;SDS011;32961;51.936;4.788;2024-01-30T02:26:01;15.23;;;9.32;;
47219;SDS011;32961;51.936;4.788;2024-01-30T02:28:29;13.88;;;8.70;;
47219;SDS011;32961;51.936;4.788;2024-01-30T02:30:57;15.02;;;9.65;;
47219;SDS011;32961;51.936;4.788;2024-01-30T02:33:25;15.98;;;9.18;;
47219;SDS011;32961;51.936;4.788;2024-01-30T02:35:52;15.63;;;9.48;;
47219;SDS011;32961;51.936;4.788;2024-01-30T02:38:22;15.80;;;9.73;;
47219;SDS011;32961;51.936;4.788;2024-01-30T02:40:50;17.25;;;9.60;;
47219;SDS011;32961;51.936;4.788;2024-01-30T02:43:18;15.68;;;10.43;;
47219;SDS011;32961;51.936;4.788;2024-01-30T02:45:46;17.65;;;10.05;;
47219;SDS011;32961;51.936;4.788;2024-01-30T02:48:14;15.15;;;9.57;;
47219;SDS011;32961;51.936;4.788;2024-01-30T02:50:42;14.85;;;8.80;;
47219;SDS011;32961;51.936;4.788;2024-01-30T02:53:10;14.40;;;9.13;;
47219;SDS011;32961;51.936;4.788;2024-01-30T02:55:39;14.93;;;8.77;;
47219;SDS011;32961;51.936;4.788;2024-01-30T02:58:07;19.80;;;9.10;;
47219;SDS011;32961;51.936;4.788;2024-01-30T03:00:34;17.15;;;9.20;;
47219;SDS011;32961;51.936;4.788;2024-01-30T03:03:03;16.15;;;8.85;;
47219;SDS011;32961;51.936;4.788;2024-01-30T03:05:31;15.35;;;9.35;;
47219;SDS011;32961;51.936;4.788;2024-01-30T03:07:59;15.13;;;9.27;;
47219;SDS011;32961;51.936;4.788;2024-01-30T03:10:27;16.17;;;8.43;;
47219;SDS011;32961;51.936;4.788;2024-01-30T03:12:56;15.60;;;9.70;;
47219;SDS011;32961;51.936;4.788;2024-01-30T03:15:24;15.85;;;9.02;;
47219;SDS011;32961;51.936;4.788;2024-01-30T03:17:53;12.88;;;9.40;;
47219;SDS011;32961;51.936;4.788;2024-01-30T03:20:21;15.70;;;8.93;;
47219;SDS011;32961;51.936;4.788;2024-01-30T03:22:49;20.67;;;9.07;;
47219;SDS011;32961;51.936;4.788;2024-01-30T03:25:16;13.77;;;9.68;;
47219;SDS011;32961;51.936;4.788;2024-01-30T03:27:44;13.20;;;9.35;;
47219;SDS011;32961;51.936;4.788;2024-01-30T03:30:14;16.30;;;9.05;;
47219;SDS011;32961;51.936;4.788;2024-01-30T03:32:42;15.85;;;9.10;;
47219;SDS011;32961;51.936;4.788;2024-01-30T03:35:10;17.20;;;8.63;;
47219;SDS011;32961;51.936;4.788;2024-01-30T03:37:38;17.63;;;9.80;;
47219;SDS011;32961;51.936;4.788;2024-01-30T03:40:06;19.58;;;9.25;;
47219;SDS011;32961;51.936;4.788;2024-01-30T03:42:35;14.73;;;8.77;;
47219;SDS011;32961;51.936;4.788;2024-01-30T03:45:03;17.40;;;9.18;;
47219;SDS011;32961;51.936;4.788;2024-01-30T03:47:33;19.35;;;10.63;;
47219;SDS011;32961;51.936;4.788;2024-01-30T03:50:01;19.40;;;11.43;;
47219;SDS011;32961;51.936;4.788;2024-01-30T03:52:31;20.98;;;11.77;;
47219;SDS011;32961;51.936;4.788;2024-01-30T03:55:00;20.73;;;10.55;;
47219;SDS011;32961;51.936;4.788;2024-01-30T03:57:28;13.95;;;8.82;;
47219;SDS011;32961;51.936;4.788;2024-01-30T03:59:56;15.10;;;9.15;;
47219;SDS011;32961;51.936;4.788;2024-01-30T04:02:28;15.32;;;9.32;;
47219;SDS011;32961;51.936;4.788;2024-01-30T04:04:57;15.68;;;10.68;;
47219;SDS011;32961;51.936;4.788;2024-01-30T04:07:25;17.05;;;10.48;;
47219;SDS011;32961;51.936;4.788;2024-01-30T04:09:53;18.10;;;9.98;;
47219;SDS011;32961;51.936;4.788;2024-01-30T04:12:21;13.13;;;9.23;;
47219;SDS011;32961;51.936;4.788;2024-01-30T04:14:51;17.90;;;11.70;;
47219;SDS011;32961;51.936;4.788;2024-01-30T04:17:19;18.75;;;9.80;;
47219;SDS011;32961;51.936;4.788;2024-01-30T04:19:47;17.23;;;9.90;;
47219;SDS011;32961;51.936;4.788;2024-01-30T04:22:16;22.58;;;13.25;;
47219;SDS011;32961;51.936;4.788;2024-01-30T04:24:44;16.20;;;10.63;;
47219;SDS011;32961;51.936;4.788;2024-01-30T04:27:12;14.98;;;9.77;;
47219;SDS011;32961;51.936;4.788;2024-01-30T04:29:40;14.65;;;9.90;;
47219;SDS011;32961;51.936;4.788;2024-01-30T04:32:10;16.65;;;10.45;;
47219;SDS011;32961;51.936;4.788;2024-01-30T04:34:38;17.02;;;9.35;;
47219;SDS011;32961;51.936;4.788;2024-01-30T04:37:06;20.90;;;9.00;;
47219;SDS011;32961;51.936;4.788;2024-01-30T04:39:35;12.05;;;8.90;;
47219;SDS011;32961;51.936;4.788;2024-01-30T04:42:03;14.90;;;9.00;;
47219;SDS011;32961;51.936;4.788;2024-01-30T04:44:34;15.05;;;8.27;;
47219;SDS011;32961;51.936;4.788;2024-01-30T04:47:03;14.15;;;9.40;;
47219;SDS011;32961;51.936;4.788;2024-01-30T04:49:32;19.13;;;11.18;;
47219;SDS011;32961;51.936;4.788;2024-01-30T04:52:00;17.15;;;9.43;;
47219;SDS011;32961;51.936;4.788;2024-01-30T04:54:28;15.73;;;9.38;;
47219;SDS011;32961;51.936;4.788;2024-01-30T04:56:57;14.50;;;9.20;;
47219;SDS011;32961;51.936;4.788;2024-01-30T04:59:25;13.82;;;9.55;;
47219;SDS011;32961;51.936;4.788;2024-01-30T05:01:52;16.40;;;9.25;;
47219;SDS011;32961;51.936;4.788;2024-01-30T05:04:20;17.83;;;8.77;;
47219;SDS011;32961;51.936;4.788;2024-01-30T05:06:49;15.70;;;9.05;;
47219;SDS011;32961;51.936;4.788;2024-01-30T05:09:16;16.27;;;8.20;;
47219;SDS011;32961;51.936;4.788;2024-01-30T05:11:45;15.80;;;8.45;;
47219;SDS011;32961;51.936;4.788;2024-01-30T05:14:14;12.23;;;8.13;;
47219;SDS011;32961;51.936;4.788;2024-01-30T05:16:42;17.30;;;9.38;;
47219;SDS011;32961;51.936;4.788;2024-01-30T05:19:13;15.55;;;8.40;;
47219;SDS011;32961;51.936;4.788;2024-01-30T05:21:41;15.32;;;8.90;;
47219;SDS011;32961;51.936;4.788;2024-01-30T05:24:09;16.77;;;9.00;;
47219;SDS011;32961;51.936;4.788;2024-01-30T05:26:37;13.80;;;7.82;;
47219;SDS011;32961;51.936;4.788;2024-01-30T05:29:06;12.73;;;8.25;;
47219;SDS011;32961;51.936;4.788;2024-01-30T05:31:35;14.30;;;7.97;;
47219;SDS011;32961;51.936;4.788;2024-01-30T05:34:03;17.60;;;8.60;;
47219;SDS011;32961;51.936;4.788;2024-01-30T05:36:31;14.27;;;8.30;;
47219;SDS011;32961;51.936;4.788;2024-01-30T05:38:59;13.82;;;8.10;;
47219;SDS011;32961;51.936;4.788;2024-01-30T05:41:26;12.32;;;8.02;;
47219;SDS011;32961;51.936;4.788;2024-01-30T05:43:54;10.88;;;7.82;;
47219;SDS011;32961;51.936;4.788;2024-01-30T05:46:22;13.90;;;8.18;;
47219;SDS011;32961;51.936;4.788;2024-01-30T05:48:52;17.25;;;7.95;;
47219;SDS011;32961;51.936;4.788;2024-01-30T05:51:20;14.02;;;8.90;;
47219;SDS011;32961;51.936;4.788;2024-01-30T05:53:48;13.38;;;7.38;;
47219;SDS011;32961;51.936;4.788;2024-01-30T05:56:16;15.32;;;8.27;;
47219;SDS011;32961;51.936;4.788;2024-01-30T05:58:44;18.10;;;8.57;;
47219;SDS011;32961;51.936;4.788;2024-01-30T06:01:12;13.45;;;7.82;;
47219;SDS011;32961;51.936;4.788;2024-01-30T06:03:40;15.15;;;8.60;;
47219;SDS011;32961;51.936;4.788;2024-01-30T06:06:11;12.93;;;8.20;;
47219;SDS011;32961;51.936;4.788;2024-01-30T06:08:38;13.38;;;8.02;;
47219;SDS011;32961;51.936;4.788;2024-01-30T06:11:10;14.35;;;8.05;;
47219;SDS011;32961;51.936;4.788;2024-01-30T06:13:38;14.65;;;7.72;;
47219;SDS011;32961;51.936;4.788;2024-01-30T06:16:08;12.88;;;7.45;;
47219;SDS011;32961;51.936;4.788;2024-01-30T06:18:37;12.23;;;7.50;;
47219;SDS011;32961;51.936;4.788;2024-01-30T06:21:05;13.38;;;8.57;;
47219;SDS011;32961;51.936;4.788;2024-01-30T06:23:37;12.45;;;8.23;;
47219;SDS011;32961;51.936;4.788;2024-01-30T06:26:06;18.40;;;8.05;;
47219;SDS011;32961;51.936;4.788;2024-01-30T06:28:34;15.25;;;9.00;;
47219;SDS011;32961;51.936;4.788;2024-01-30T06:31:02;16.30;;;8.65;;
47219;SDS011;32961;51.936;4.788;2024-01-30T06:33:32;15.27;;;8.25;;
47219;SDS011;32961;51.936;4.788;2024-01-30T06:36:00;13.15;;;7.35;;
47219;SDS011;32961;51.936;4.788;2024-01-30T06:38:29;14.80;;;7.88;;
47219;SDS011;32961;51.936;4.788;2024-01-30T06:40:58;12.35;;;7.65;;
47219;SDS011;32961;51.936;4.788;2024-01-30T06:43:26;12.90;;;7.95;;
47219;SDS011;32961;51.936;4.788;2024-01-30T06:45:54;13.50;;;7.47;;
47219;SDS011;32961;51.936;4.788;2024-01-30T06:48:21;14.27;;;7.82;;
47219;SDS011;32961;51.936;4.788;2024-01-30T06:50:49;14.85;;;8.13;;
47219;SDS011;32961;51.936;4.788;2024-01-30T06:53:17;14.82;;;8.10;;
47219;SDS011;32961;51.936;4.788;2024-01-30T06:55:45;20.90;;;9.20;;
47219;SDS011;32961;51.936;4.788;2024-01-30T06:58:14;12.10;;;7.72;;
47219;SDS011;32961;51.936;4.788;2024-01-30T07:00:42;14.98;;;7.97;;
47219;SDS011;32961;51.936;4.788;2024-01-30T07:03:10;12.82;;;7.80;;
47219;SDS011;32961;51.936;4.788;2024-01-30T07:05:38;15.18;;;7.93;;
47219;SDS011;32961;51.936;4.788;2024-01-30T07:08:06;18.17;;;8.68;;
47219;SDS011;32961;51.936;4.788;2024-01-30T07:10:34;14.30;;;7.65;;
47219;SDS011;32961;51.936;4.788;2024-01-30T07:13:02;18.70;;;8.15;;
47219;SDS011;32961;51.936;4.788;2024-01-30T07:15:32;19.83;;;10.32;;
47219;SDS011;32961;51.936;4.788;2024-01-30T07:18:03;17.75;;;8.48;;
47219;SDS011;32961;51.936;4.788;2024-01-30T07:20:32;12.25;;;8.25;;
47219;SDS011;32961;51.936;4.788;2024-01-30T07:22:59;13.30;;;7.50;;
47219;SDS011;32961;51.936;4.788;2024-01-30T07:25:28;12.65;;;7.30;;
47219;SDS011;32961;51.936;4.788;2024-01-30T07:28:03;13.35;;;7.70;;
47219;SDS011;32961;51.936;4.788;2024-01-30T07:30:33;15.15;;;8.52;;
47219;SDS011;32961;51.936;4.788;2024-01-30T07:33:01;17.85;;;8.82;;
47219;SDS011;32961;51.936;4.788;2024-01-30T07:35:29;18.85;;;9.52;;
47219;SDS011;32961;51.936;4.788;2024-01-30T07:37:57;14.18;;;7.90;;
47219;SDS011;32961;51.936;4.788;2024-01-30T07:40:25;16.52;;;7.53;;
47219;SDS011;32961;51.936;4.788;2024-01-30T07:42:55;17.17;;;7.93;;
47219;SDS011;32961;51.936;4.788;2024-01-30T07:45:23;19.20;;;8.38;;
47219;SDS011;32961;51.936;4.788;2024-01-30T07:47:53;18.98;;;7.80;;
47219;SDS011;32961;51.936;4.788;2024-01-30T07:50:21;17.08;;;8.18;;
47219;SDS011;32961;51.936;4.788;2024-01-30T07:52:49;18.30;;;8.88;;
47219;SDS011;32961;51.936;4.788;2024-01-30T07:55:20;18.83;;;9.25;;
47219;SDS011;32961;51.936;4.788;2024-01-30T07:57:51;17.63;;;8.73;;
47219;SDS011;32961;51.936;4.788;2024-01-30T08:00:20;20.17;;;8.15;;
47219;SDS011;32961;51.936;4.788;2024-01-30T08:02:48;14.77;;;8.05;;
47219;SDS011;32961;51.936;4.788;2024-01-30T08:05:17;16.13;;;7.22;;
47219;SDS011;32961;51.936;4.788;2024-01-30T08:07:45;17.70;;;7.40;;
47219;SDS011;32961;51.936;4.788;2024-01-30T08:10:13;21.52;;;8.95;;
47219;SDS011;32961;51.936;4.788;2024-01-30T08:12:41;16.33;;;8.52;;
47219;SDS011;32961;51.936;4.788;2024-01-30T08:15:10;17.20;;;8.27;;
47219;SDS011;32961;51.936;4.788;2024-01-30T08:17:39;16.90;;;8.02;;
47219;SDS011;32961;51.936;4.788;2024-01-30T08:20:07;16.73;;;7.60;;
47219;SDS011;32961;51.936;4.788;2024-01-30T08:22:39;13.30;;;8.75;;
47219;SDS011;32961;51.936;4.788;2024-01-30T08:25:08;17.27;;;8.10;;
47219;SDS011;32961;51.936;4.788;2024-01-30T08:27:37;15.77;;;8.85;;
47219;SDS011;32961;51.936;4.788;2024-01-30T08:30:05;20.90;;;8.52;;
47219;SDS011;32961;51.936;4.788;2024-01-30T08:32:34;18.60;;;8.15;;
47219;SDS011;32961;51.936;4.788;2024-01-30T08:35:02;17.13;;;8.05;;
47219;SDS011;32961;51.936;4.788;2024-01-30T08:37:31;22.30;;;9.07;;
47219;SDS011;32961;51.936;4.788;2024-01-30T08:40:00;13.35;;;7.85;;
47219;SDS011;32961;51.936;4.788;2024-01-30T08:42:31;17.27;;;7.95;;
47219;SDS011;32961;51.936;4.788;2024-01-30T08:44:59;19.35;;;7.85;;
47219;SDS011;32961;51.936;4.788;2024-01-30T08:47:27;19.35;;;8.45;;
47219;SDS011;32961;51.936;4.788;2024-01-30T08:49:55;15.07;;;7.78;;
47219;SDS011;32961;51.936;4.788;2024-01-30T08:52:23;18.63;;;8.45;;
47219;SDS011;32961;51.936;4.788;2024-01-30T08:54:51;14.85;;;7.63;;
47219;SDS011;32961;51.936;4.788;2024-01-30T08:57:20;12.52;;;7.30;;
47219;SDS011;32961;51.936;4.788;2024-01-30T08:59:48;16.52;;;8.70;;
47219;SDS011;32961;51.936;4.788;2024-01-30T09:02:15;14.48;;;7.38;;
47219;SDS011;32961;51.936;4.788;2024-01-30T09:04:44;17.95;;;7.47;;
47219;SDS011;32961;51.936;4.788;2024-01-30T09:07:15;17.75;;;7.60;;
47219;SDS011;32961;51.936;4.788;2024-01-30T09:09:46;16.80;;;7.07;;
47219;SDS011;32961;51.936;4.788;2024-01-30T09:12:14;16.65;;;7.65;;
47219;SDS011;32961;51.936;4.788;2024-01-30T09:14:43;15.80;;;7.13;;
47219;SDS011;32961;51.936;4.788;2024-01-30T09:17:11;14.07;;;6.97;;
47219;SDS011;32961;51.936;4.788;2024-01-30T09:19:40;13.38;;;7.55;;
47219;SDS011;32961;51.936;4.788;2024-01-30T09:22:08;19.20;;;8.70;;
47219;SDS011;32961;51.936;4.788;2024-01-30T09:24:36;18.58;;;7.95;;
47219;SDS011;32961;51.936;4.788;2024-01-30T09:27:04;14.07;;;7.32;;
47219;SDS011;32961;51.936;4.788;2024-01-30T09:29:32;13.50;;;6.65;;
47219;SDS011;32961;51.936;4.788;2024-01-30T09:32:02;15.60;;;6.88;;
47219;SDS011;32961;51.936;4.788;2024-01-30T09:34:31;12.25;;;7.15;;
47219;SDS011;32961;51.936;4.788;2024-01-30T09:36:59;15.70;;;7.68;;
47219;SDS011;32961;51.936;4.788;2024-01-30T09:39:27;11.63;;;6.53;;
47219;SDS011;32961;51.936;4.788;2024-01-30T09:41:55;13.15;;;6.72;;
47219;SDS011;32961;51.936;4.788;2024-01-30T09:44:30;11.13;;;6.50;;
47219;SDS011;32961;51.936;4.788;2024-01-30T09:47:02;10.40;;;6.32;;
47219;SDS011;32961;51.936;4.788;2024-01-30T09:49:37;13.00;;;6.10;;
47219;SDS011;32961;51.936;4.788;2024-01-30T09:52:08;20.95;;;6.75;;
47219;SDS011;32961;51.936;4.788;2024-01-30T09:54:36;15.02;;;6.90;;
47219;SDS011;32961;51.936;4.788;2024-01-30T09:57:05;15.82;;;7.18;;
47219;SDS011;32961;51.936;4.788;2024-01-30T09:59:34;14.38;;;7.05;;
47219;SDS011;32961;51.936;4.788;2024-01-30T10:02:03;14.40;;;6.82;;
47219;SDS011;32961;51.936;4.788;2024-01-30T10:04:31;12.55;;;6.97;;
47219;SDS011;32961;51.936;4.788;2024-01-30T10:07:00;17.63;;;7.40;;
47219;SDS011;32961;51.936;4.788;2024-01-30T10:09:31;17.55;;;9.27;;
47219;SDS011;32961;51.936;4.788;2024-01-30T10:12:01;12.23;;;6.40;;
47219;SDS011;32961;51.936;4.788;2024-01-30T10:14:30;16.25;;;6.60;;
47219;SDS011;32961;51.936;4.788;2024-01-30T10:16:57;12.02;;;7.40;;
47219;SDS011;32961;51.936;4.788;2024-01-30T10:19:27;16.83;;;7.97;;
47219;SDS011;32961;51.936;4.788;2024-01-30T10:21:55;11.60;;;5.85;;
47219;SDS011;32961;51.936;4.788;2024-01-30T10:24:26;12.52;;;5.57;;
47219;SDS011;32961;51.936;4.788;2024-01-30T10:26:55;15.30;;;5.50;;
47219;SDS011;32961;51.936;4.788;2024-01-30T10:29:24;14.35;;;6.93;;
47219;SDS011;32961;51.936;4.788;2024-01-30T10:31:58;16.88;;;5.93;;
47219;SDS011;32961;51.936;4.788;2024-01-30T10:34:28;8.73;;;4.70;;
47219;SDS011;32961;51.936;4.788;2024-01-30T10:36:59;16.20;;;3.70;;
47219;SDS011;32961;51.936;4.788;2024-01-30T10:39:34;9.82;;;3.40;;
47219;SDS011;32961;51.936;4.788;2024-01-30T10:42:06;7.82;;;3.50;;
47219;SDS011;32961;51.936;4.788;2024-01-30T10:44:42;12.00;;;3.47;;
47219;SDS011;32961;51.936;4.788;2024-01-30T10:47:25;14.05;;;4.38;;
47219;SDS011;32961;51.936;4.788;2024-01-30T10:49:56;11.90;;;3.33;;
47219;SDS011;32961;51.936;4.788;2024-01-30T10:52:25;13.65;;;2.75;;
47219;SDS011;32961;51.936;4.788;2024-01-30T10:54:54;11.77;;;3.10;;
47219;SDS011;32961;51.936;4.788;2024-01-30T10:57:23;8.48;;;2.25;;
47219;SDS011;32961;51.936;4.788;2024-01-30T10:59:52;6.97;;;1.58;;
47219;SDS011;32961;51.936;4.788;2024-01-30T11:02:24;7.40;;;1.83;;
47219;SDS011;32961;51.936;4.788;2024-01-30T11:04:56;14.90;;;2.08;;
47219;SDS011;32961;51.936;4.788;2024-01-30T11:09:59;10.43;;;2.17;;
47219;SDS011;32961;51.936;4.788;2024-01-30T11:12:30;12.15;;;1.80;;
47219;SDS011;32961;51.936;4.788;2024-01-30T11:15:04;10.07;;;1.52;;
47219;SDS011;32961;51.936;4.788;2024-01-30T11:17:39;9.55;;;3.05;;
47219;SDS011;32961;51.936;4.788;2024-01-30T11:20:13;8.60;;;1.65;;
47219;SDS011;32961;51.936;4.788;2024-01-30T11:22:42;6.93;;;1.38;;
47219;SDS011;32961;51.936;4.788;2024-01-30T11:25:12;6.85;;;2.13;;
47219;SDS011;32961;51.936;4.788;2024-01-30T11:27:44;5.80;;;2.47;;
47219;SDS011;32961;51.936;4.788;2024-01-30T11:30:20;3.45;;;1.67;;
47219;SDS011;32961;51.936;4.788;2024-01-30T11:33:03;4.85;;;1.80;;
47219;SDS011;32961;51.936;4.788;2024-01-30T11:35:35;31.30;;;4.90;;
47219;SDS011;32961;51.936;4.788;2024-01-30T11:38:06;7.22;;;2.15;;
47219;SDS011;32961;51.936;4.788;2024-01-30T11:40:37;6.47;;;2.55;;
47219;SDS011;32961;51.936;4.788;2024-01-30T11:43:06;5.80;;;1.70;;
47219;SDS011;32961;51.936;4.788;2024-01-30T11:45:36;8.95;;;2.40;;
47219;SDS011;32961;51.936;4.788;2024-01-30T11:48:06;8.88;;;2.42;;
47219;SDS011;32961;51.936;4.788;2024-01-30T11:50:39;7.25;;;1.90;;
47219;SDS011;32961;51.936;4.788;2024-01-30T11:53:07;7.70;;;1.67;;
47219;SDS011;32961;51.936;4.788;2024-01-30T11:55:36;5.30;;;1.40;;
47219;SDS011;32961;51.936;4.788;2024-01-30T11:58:05;7.20;;;1.50;;
47219;SDS011;32961;51.936;4.788;2024-01-30T12:00:33;10.18;;;1.92;;
47219;SDS011;32961;51.936;4.788;2024-01-30T12:03:03;11.05;;;3.70;;
47219;SDS011;32961;51.936;4.788;2024-01-30T12:05:33;7.82;;;1.83;;
47219;SDS011;32961;51.936;4.788;2024-01-30T12:08:04;7.63;;;1.60;;
47219;SDS011;32961;51.936;4.788;2024-01-30T12:10:33;6.82;;;1.65;;
47219;SDS011;32961;51.936;4.788;2024-01-30T12:13:01;7.40;;;1.48;;
47219;SDS011;32961;51.936;4.788;2024-01-30T12:15:32;5.78;;;1.67;;
47219;SDS011;32961;51.936;4.788;2024-01-30T12:18:04;4.65;;;1.30;;
47219;SDS011;32961;51.936;4.788;2024-01-30T12:20:34;5.15;;;1.20;;
47219;SDS011;32961;51.936;4.788;2024-01-30T12:23:03;5.05;;;1.17;;
47219;SDS011;32961;51.936;4.788;2024-01-30T12:25:31;5.30;;;1.15;;
47219;SDS011;32961;51.936;4.788;2024-01-30T12:27:59;6.75;;;1.42;;
47219;SDS011;32961;51.936;4.788;2024-01-30T12:30:28;4.10;;;1.20;;
47219;SDS011;32961;51.936;4.788;2024-01-30T12:32:57;13.27;;;1.75;;
47219;SDS011;32961;51.936;4.788;2024-01-30T12:35:25;5.22;;;1.40;;
47219;SDS011;32961;51.936;4.788;2024-01-30T12:38:15;5.75;;;1.73;;
47219;SDS011;32961;51.936;4.788;2024-01-30T12:40:43;7.22;;;1.92;;
47219;SDS011;32961;51.936;4.788;2024-01-30T12:43:13;7.28;;;1.55;;
47219;SDS011;32961;51.936;4.788;2024-01-30T12:48:25;7.57;;;1.63;;
47219;SDS011;32961;51.936;4.788;2024-01-30T12:50:53;4.18;;;1.13;;
47219;SDS011;32961;51.936;4.788;2024-01-30T12:53:22;6.57;;;1.08;;
47219;SDS011;32961;51.936;4.788;2024-01-30T12:55:53;5.40;;;1.27;;
47219;SDS011;32961;51.936;4.788;2024-01-30T12:58:21;4.70;;;1.10;;
47219;SDS011;32961;51.936;4.788;2024-01-30T13:00:49;5.88;;;1.23;;
47219;SDS011;32961;51.936;4.788;2024-01-30T13:03:17;4.28;;;0.93;;
47219;SDS011;32961;51.936;4.788;2024-01-30T13:05:45;6.53;;;1.23;;
47219;SDS011;32961;51.936;4.788;2024-01-30T13:08:13;7.00;;;2.08;;
47219;SDS011;32961;51.936;4.788;2024-01-30T13:10:42;6.95;;;1.30;;
47219;SDS011;32961;51.936;4.788;2024-01-30T13:13:15;15.35;;;1.73;;
47219;SDS011;32961;51.936;4.788;2024-01-30T13:15:46;14.10;;;1.25;;
47219;SDS011;32961;51.936;4.788;2024-01-30T13:18:14;8.90;;;1.33;;
47219;SDS011;32961;51.936;4.788;2024-01-30T13:20:43;7.38;;;1.20;;
47219;SDS011;32961;51.936;4.788;2024-01-30T13:23:11;4.88;;;1.08;;
47219;SDS011;32961;51.936;4.788;2024-01-30T13:25:38;6.80;;;1.67;;
47219;SDS011;32961;51.936;4.788;2024-01-30T13:28:08;6.72;;;1.85;;
47219;SDS011;32961;51.936;4.788;2024-01-30T13:30:36;12.35;;;1.55;;
47219;SDS011;32961;51.936;4.788;2024-01-30T13:33:04;8.48;;;1.70;;
47219;SDS011;32961;51.936;4.788;2024-01-30T13:35:32;9.57;;;1.58;;
47219;SDS011;32961;51.936;4.788;2024-01-30T13:38:00;6.45;;;1.45;;
47219;SDS011;32961;51.936;4.788;2024-01-30T13:40:28;7.05;;;1.77;;
47219;SDS011;32961;51.936;4.788;2024-01-30T13:42:56;5.75;;;1.33;;
47219;SDS011;32961;51.936;4.788;2024-01-30T13:45:26;11.45;;;2.70;;
47219;SDS011;32961;51.936;4.788;2024-01-30T13:47:57;11.02;;;1.70;;
47219;SDS011;32961;51.936;4.788;2024-01-30T13:50:26;19.10;;;5.72;;
47219;SDS011;32961;51.936;4.788;2024-01-30T13:52:54;10.00;;;3.83;;
47219;SDS011;32961;51.936;4.788;2024-01-30T13:55:24;11.07;;;1.90;;
47219;SDS011;32961;51.936;4.788;2024-01-30T13:57:52;9.73;;;1.50;;
47219;SDS011;32961;51.936;4.788;2024-01-30T14:00:19;14.20;;;4.05;;
47219;SDS011;32961;51.936;4.788;2024-01-30T14:02:50;6.28;;;1.40;;
47219;SDS011;32961;51.936;4.788;2024-01-30T14:05:18;9.13;;;1.55;;
47219;SDS011;32961;51.936;4.788;2024-01-30T14:07:48;7.95;;;2.35;;
47219;SDS011;32961;51.936;4.788;2024-01-30T14:10:18;8.40;;;1.63;;
47219;SDS011;32961;51.936;4.788;2024-01-30T14:12:46;7.53;;;1.65;;
47219;SDS011;32961;51.936;4.788;2024-01-30T14:15:14;4.35;;;1.50;;
47219;SDS011;32961;51.936;4.788;2024-01-30T14:17:56;7.35;;;1.55;;
47219;SDS011;32961;51.936;4.788;2024-01-30T14:20:25;10.07;;;1.98;;
47219;SDS011;32961;51.936;4.788;2024-01-30T14:22:53;6.82;;;1.73;;
47219;SDS011;32961;51.936;4.788;2024-01-30T14:25:22;9.88;;;2.10;;
47219;SDS011;32961;51.936;4.788;2024-01-30T14:27:51;9.32;;;2.15;;
47219;SDS011;32961;51.936;4.788;2024-01-30T14:30:19;6.90;;;2.08;;
47219;SDS011;32961;51.936;4.788;2024-01-30T14:32:47;8.88;;;2.20;;
47219;SDS011;32961;51.936;4.788;2024-01-30T14:35:16;10.60;;;2.10;;
47219;SDS011;32961;51.936;4.788;2024-01-30T14:37:46;8.15;;;1.90;;
47219;SDS011;32961;51.936;4.788;2024-01-30T14:40:14;7.95;;;2.30;;
47219;SDS011;32961;51.936;4.788;2024-01-30T14:42:41;6.95;;;1.85;;
47219;SDS011;32961;51.936;4.788;2024-01-30T14:45:09;8.15;;;2.05;;
47219;SDS011;32961;51.936;4.788;2024-01-30T14:47:38;7.00;;;2.35;;
47219;SDS011;32961;51.936;4.788;2024-01-30T14:50:07;10.18;;;2.25;;
47219;SDS011;32961;51.936;4.788;2024-01-30T14:52:37;11.85;;;2.65;;